createdAt,value
2022-09-12T00:00:31.462Z,90.44
2022-09-12T00:03:19.273Z,90.50
2022-09-12T00:06:11.636Z,90.66
2022-09-12T00:09:01.331Z,90.61
2022-09-12T00:11:59.614Z,90.67
2022-09-12T00:14:47.600Z,90.70
2022-09-12T00:17:24.225Z,90.84
2022-09-12T00:20:13.222Z,90.89
2022-09-12T00:23:30.136Z,90.98
2022-09-12T00:26:18.546Z,91.03
2022-09-12T00:29:12.349Z,91.17
2022-09-12T00:32:13.191Z,91.27
2022-09-12T00:35:29.059Z,91.49
2022-09-12T00:38:41.316Z,91.58
2022-09-12T00:41:34.845Z,91.67
2022-09-12T00:44:43.829Z,91.68
2022-09-12T00:47:29.003Z,91.80
2022-09-12T00:50:21.168Z,91.96
2022-09-12T00:53:13.177Z,92.09
2022-09-12T00:55:53.163Z,92.25
2022-09-12T00:58:54.295Z,92.31
2022-09-12T01:01:32.598Z,92.42
2022-09-12T01:04:49.587Z,92.50
2022-09-12T01:07:39.898Z,92.61
2022-09-12T01:10:16.109Z,92.68
2022-09-12T01:13:09.796Z,92.68
2022-09-12T01:15:41.346Z,92.73
2022-09-12T01:18:32.414Z,92.83
2022-09-12T01:21:18.469Z,92.94
2022-09-12T01:24:05.757Z,93.01
2022-09-12T01:26:54.516Z,93.14
2022-09-12T01:29:39.729Z,93.23
2022-09-12T01:32:45.641Z,93.50
2022-09-12T01:35:20.922Z,93.74
2022-09-12T01:38:23.472Z,93.79
2022-09-12T01:41:05.330Z,94.02
2022-09-12T01:43:55.624Z,94.02
2022-09-12T01:46:33.364Z,93.95
2022-09-12T01:49:11.192Z,94.01
2022-09-12T01:51:42.383Z,93.97
2022-09-12T01:54:22.024Z,93.94
2022-09-12T01:57:01.692Z,94.10
2022-09-12T01:59:41.512Z,94.22
2022-09-12T02:02:16.495Z,94.18
2022-09-12T02:05:06.427Z,94.38
2022-09-12T02:08:02.146Z,94.46
2022-09-12T02:10:35.064Z,94.53
2022-09-12T02:13:30.965Z,94.58
2022-09-12T02:16:32.118Z,94.64
2022-09-12T02:19:07.382Z,94.72
2022-09-12T02:21:53.525Z,94.90
2022-09-12T02:24:25.908Z,94.90
2022-09-12T02:26:57.875Z,95.02
2022-09-12T02:29:28.076Z,95.03
2022-09-12T02:32:21.686Z,94.97
2022-09-12T02:34:57.870Z,95.17
2022-09-12T02:37:45.967Z,95.10
2022-09-12T02:40:37.513Z,95.11
2022-09-12T02:43:11.016Z,95.10
2022-09-12T02:46:11.542Z,95.35
2022-09-12T02:48:56.004Z,95.34
2022-09-12T02:51:34.136Z,95.32
2022-09-12T02:54:02.618Z,95.38
2022-09-12T02:56:50.512Z,95.66
2022-09-12T02:59:19.516Z,95.68
2022-09-12T03:02:27.695Z,95.84
2022-09-12T03:05:17.114Z,95.96
2022-09-12T03:08:05.070Z,96.08
2022-09-12T03:10:56.842Z,96.12
2022-09-12T03:13:47.354Z,96.13
2022-09-12T03:16:23.129Z,96.16
2022-09-12T03:19:08.700Z,96.33
2022-09-12T03:22:04.302Z,96.58
2022-09-12T03:24:57.458Z,96.39
2022-09-12T03:27:30.574Z,96.38
2022-09-12T03:30:19.572Z,96.61
2022-09-12T03:32:58.560Z,96.62
2022-09-12T03:35:37.494Z,96.72
2022-09-12T03:38:28.196Z,97.01
2022-09-12T03:41:12.685Z,97.06
2022-09-12T03:44:00.730Z,97.03
2022-09-12T03:47:11.294Z,96.93
2022-09-12T03:49:59.658Z,97.08
2022-09-12T03:52:49.332Z,97.16
2022-09-12T03:55:58.220Z,97.30
2022-09-12T03:59:06.644Z,97.48
2022-09-12T04:02:28.805Z,97.39
2022-09-12T04:05:08.236Z,97.44
2022-09-12T04:07:56.138Z,97.36
2022-09-12T04:11:13.699Z,97.32
2022-09-12T04:13:52.779Z,97.28
2022-09-12T04:16:51.310Z,97.30
2022-09-12T04:19:59.474Z,97.39
2022-09-12T04:23:07.208Z,97.30
2022-09-12T04:25:55.392Z,97.31
2022-09-12T04:28:54.176Z,97.29
2022-09-12T04:31:43.963Z,97.23
2022-09-12T04:34:30.472Z,97.28
2022-09-12T04:37:23.060Z,97.22
2022-09-12T04:40:11.038Z,97.30
2022-09-12T04:42:43.837Z,97.26
2022-09-12T04:45:17.759Z,97.06
2022-09-12T04:48:14.766Z,97.01
2022-09-12T04:51:11.633Z,96.99
2022-09-12T04:54:05.692Z,96.64
2022-09-12T04:56:54.322Z,96.20
2022-09-12T04:59:27.283Z,96.06
2022-09-12T05:02:04.382Z,96.08
2022-09-12T05:04:55.819Z,96.36
2022-09-12T05:07:44.751Z,96.57
2022-09-12T05:10:17.765Z,96.45
2022-09-12T05:12:56.924Z,96.62
2022-09-12T05:15:55.363Z,96.67
2022-09-12T05:18:30.671Z,96.68
2022-09-12T05:21:24.753Z,96.94
2022-09-12T05:24:08.879Z,97.11
2022-09-12T05:26:50.664Z,97.31
2022-09-12T05:29:35.659Z,97.49
2022-09-12T05:32:23.575Z,97.36
2022-09-12T05:35:04.597Z,97.30
2022-09-12T05:37:55.606Z,97.52
2022-09-12T05:40:36.457Z,97.81
2022-09-12T05:43:34.002Z,97.94
2022-09-12T05:46:25.182Z,97.85
2022-09-12T05:49:13.314Z,97.76
2022-09-12T05:51:49.248Z,97.83
2022-09-12T05:54:47.393Z,97.69
2022-09-12T05:57:34.389Z,97.92
2022-09-12T06:00:45.343Z,98.00
2022-09-12T06:03:36.813Z,98.06
2022-09-12T06:06:13.098Z,97.94
2022-09-12T06:09:10.138Z,98.13
2022-09-12T06:12:04.525Z,98.39
2022-09-12T06:14:50.870Z,98.63
2022-09-12T06:17:43.357Z,98.53
2022-09-12T06:20:51.469Z,98.58
2022-09-12T06:23:48.660Z,98.44
2022-09-12T06:29:55.136Z,98.35
2022-09-12T06:33:02.978Z,98.39
2022-09-12T06:36:12.665Z,98.14
2022-09-12T06:39:03.253Z,98.40
2022-09-12T06:41:52.096Z,98.35
2022-09-12T06:44:41.272Z,98.24
2022-09-12T06:47:49.430Z,98.54
2022-09-12T06:50:41.484Z,98.28
2022-09-12T06:53:32.790Z,97.98
2022-09-12T06:56:26.361Z,98.04
2022-09-12T06:59:24.889Z,97.96
2022-09-12T07:02:39.638Z,98.09
2022-09-12T07:05:55.697Z,97.96
2022-09-12T07:08:45.805Z,97.93
2022-09-12T07:11:34.678Z,97.53
2022-09-12T07:14:49.706Z,97.47
2022-09-12T07:17:32.046Z,97.46
2022-09-12T07:20:40.486Z,97.52
2022-09-12T07:23:52.253Z,97.34
2022-09-12T07:26:30.889Z,97.09
2022-09-12T07:29:37.443Z,97.01
2022-09-12T07:32:26.136Z,96.93
2022-09-12T07:34:56.784Z,96.78
2022-09-12T07:38:01.239Z,96.54
2022-09-12T07:40:49.869Z,96.70
2022-09-12T07:43:41.852Z,96.81
2022-09-12T07:46:50.671Z,96.48
2022-09-12T07:49:21.808Z,96.34
2022-09-12T07:52:30.538Z,95.89
2022-09-12T07:55:32.868Z,95.33
2022-09-12T07:59:35.372Z,95.35
2022-09-12T08:02:16.027Z,95.52
2022-09-12T08:04:54.408Z,95.17
2022-09-12T08:07:42.278Z,95.18
2022-09-12T08:10:33.376Z,95.12
2022-09-12T08:13:24.086Z,94.91
2022-09-12T08:16:32.902Z,94.90
2022-09-12T08:19:05.976Z,94.99
2022-09-12T08:21:46.845Z,94.84
2022-09-12T08:24:17.802Z,94.87
2022-09-12T08:27:05.967Z,94.84
2022-09-12T08:29:54.953Z,95.20
2022-09-12T08:32:42.862Z,94.91
2022-09-12T08:35:17.796Z,94.81
2022-09-12T08:37:48.012Z,94.61
2022-09-12T08:40:43.308Z,94.42
2022-09-12T08:43:52.013Z,94.50
2022-09-12T08:46:37.943Z,94.24
2022-09-12T08:49:09.988Z,93.72
2022-09-12T08:52:05.461Z,93.48
2022-09-12T08:54:33.687Z,93.39
2022-09-12T08:57:21.589Z,93.63
2022-09-12T09:00:04.434Z,93.41
2022-09-12T09:03:04.258Z,93.22
2022-09-12T09:06:00.951Z,92.99
2022-09-12T09:08:42.558Z,92.80
2022-09-12T09:11:54.190Z,92.79
2022-09-12T09:14:48.806Z,92.71
2022-09-12T09:17:51.836Z,92.87
2022-09-12T09:20:34.033Z,92.60
2022-09-12T09:23:20.126Z,91.95
2022-09-12T09:26:14.183Z,91.70
2022-09-12T09:28:46.265Z,91.51
2022-09-12T09:31:55.425Z,91.45
2022-09-12T09:34:29.389Z,91.40
2022-09-12T09:37:19.513Z,91.50
2022-09-12T09:39:57.511Z,91.43
2022-09-12T09:42:30.873Z,90.72
2022-09-12T09:45:00.108Z,90.78
2022-09-12T09:47:39.939Z,91.01
2022-09-12T09:50:29.672Z,90.73
2022-09-12T09:53:27.264Z,90.95
2022-09-12T09:56:01.228Z,90.49
2022-09-12T09:58:43.150Z,90.76
2022-09-12T10:01:16.017Z,90.85
2022-09-12T10:03:51.516Z,90.96
2022-09-12T10:06:46.458Z,91.03
2022-09-12T10:09:25.467Z,91.30
2022-09-12T10:11:57.138Z,91.23
2022-09-12T10:14:30.533Z,90.86
2022-09-12T10:17:33.150Z,90.67
2022-09-12T10:20:22.021Z,90.52
2022-09-12T10:22:59.524Z,90.59
2022-09-12T10:25:48.038Z,90.19
2022-09-12T10:28:21.968Z,89.67
2022-09-12T10:30:55.605Z,89.31
2022-09-12T10:33:26.283Z,89.29
2022-09-12T10:36:19.364Z,89.28
2022-09-12T10:39:19.340Z,89.03
2022-09-12T10:42:05.356Z,89.26
2022-09-12T10:44:38.132Z,89.00
2022-09-12T10:47:28.291Z,88.71
2022-09-12T10:50:22.931Z,88.47
2022-09-12T10:52:50.961Z,88.46
2022-09-12T10:55:45.501Z,88.43
2022-09-12T10:58:24.079Z,88.43
2022-09-12T11:01:09.397Z,88.11
2022-09-12T11:03:48.595Z,87.31
2022-09-12T11:06:32.318Z,86.77
2022-09-12T11:09:19.696Z,87.07
2022-09-12T11:12:11.022Z,86.97
2022-09-12T11:14:51.507Z,86.81
2022-09-12T11:17:25.754Z,86.84
2022-09-12T11:20:03.538Z,86.35
2022-09-12T11:22:54.530Z,86.08
2022-09-12T11:25:33.420Z,86.01
2022-09-12T11:28:26.661Z,86.18
2022-09-12T11:31:05.294Z,86.13
2022-09-12T11:33:43.181Z,86.28
2022-09-12T11:36:30.893Z,86.16
2022-09-12T11:39:12.860Z,85.84
2022-09-12T11:41:48.060Z,85.82
2022-09-12T11:44:18.988Z,86.12
2022-09-12T11:46:56.436Z,86.20
2022-09-12T11:49:35.432Z,86.04
2022-09-12T11:52:24.591Z,85.55
2022-09-12T11:54:59.982Z,85.85
2022-09-12T11:57:33.687Z,85.57
2022-09-12T12:00:15.433Z,85.75
2022-09-12T12:03:08.628Z,85.94
2022-09-12T12:05:49.593Z,86.09
2022-09-12T12:08:40.166Z,86.48
2022-09-12T12:11:26.560Z,86.47
2022-09-12T12:13:57.178Z,86.82
2022-09-12T12:16:27.508Z,87.49
2022-09-12T12:18:59.218Z,87.60
2022-09-12T12:21:34.327Z,87.57
2022-09-12T12:24:26.091Z,87.77
2022-09-12T12:27:24.251Z,87.88
2022-09-12T12:30:01.273Z,88.53
2022-09-12T12:32:47.705Z,88.66
2022-09-12T12:35:39.774Z,88.66
2022-09-12T12:38:27.877Z,89.13
2022-09-12T12:41:13.673Z,89.16
2022-09-12T12:43:45.371Z,89.34
2022-09-12T12:46:21.009Z,89.53
2022-09-12T12:49:04.766Z,89.78
2022-09-12T12:52:02.020Z,89.79
2022-09-12T12:54:53.198Z,90.06
2022-09-12T12:57:31.333Z,90.18
2022-09-12T13:00:29.417Z,90.14
2022-09-12T13:03:31.563Z,90.21
2022-09-12T13:06:29.807Z,90.47
2022-09-12T13:09:05.323Z,90.49
2022-09-12T13:11:39.142Z,90.40
2022-09-12T13:14:37.056Z,90.77
2022-09-12T13:17:17.657Z,90.80
2022-09-12T13:20:34.258Z,90.69
2022-09-12T13:23:21.501Z,90.61
2022-09-12T13:25:53.523Z,90.65
2022-09-12T13:28:31.827Z,90.66
2022-09-12T13:31:03.375Z,90.77
2022-09-12T13:34:04.831Z,90.93
2022-09-12T13:36:49.119Z,90.68
2022-09-12T13:39:49.276Z,90.46
2022-09-12T13:42:31.697Z,90.28
2022-09-12T13:45:20.057Z,90.51
2022-09-12T13:48:19.526Z,90.50
2022-09-12T13:51:23.007Z,91.04
2022-09-12T13:54:02.473Z,90.55
2022-09-12T13:56:48.218Z,90.44
2022-09-12T13:59:24.827Z,90.48
2022-09-12T14:01:55.265Z,90.42
2022-09-12T14:04:44.783Z,90.55
2022-09-12T14:07:21.790Z,90.29
2022-09-12T14:10:32.565Z,90.54
2022-09-12T14:13:21.430Z,90.78
2022-09-12T14:19:40.580Z,90.96
2022-09-12T14:22:58.179Z,91.03
2022-09-12T14:25:47.256Z,91.11
2022-09-12T14:28:47.481Z,91.23
2022-09-12T14:31:36.636Z,91.08
2022-09-12T14:34:24.472Z,90.87
2022-09-12T14:37:43.281Z,90.89
2022-09-12T14:40:18.471Z,90.74
2022-09-12T14:43:27.882Z,90.76
2022-09-12T14:46:38.191Z,90.82
2022-09-12T14:49:48.763Z,90.67
2022-09-12T14:52:57.419Z,90.87
2022-09-12T14:55:29.668Z,91.28
2022-09-12T14:58:33.183Z,91.39
2022-09-12T15:05:03.235Z,91.77
2022-09-12T15:12:11.945Z,92.13
2022-09-12T15:27:06.002Z,92.39
2022-09-12T15:30:39.918Z,92.93
2022-09-12T15:33:36.739Z,92.78
2022-09-12T15:40:21.299Z,93.60
2022-09-12T15:43:57.825Z,93.62
2022-09-12T15:51:15.992Z,92.97
2022-09-12T15:54:41.604Z,93.41
2022-09-12T15:57:48.074Z,93.45
2022-09-12T16:22:35.979Z,94.62
2022-09-12T16:30:02.957Z,95.44
2022-09-12T16:33:07.783Z,95.67
2022-09-12T16:36:26.479Z,95.50
2022-09-12T16:39:22.937Z,95.18
2022-09-12T16:42:27.309Z,95.20
2022-09-12T16:45:41.083Z,94.99
2022-09-12T16:48:47.938Z,95.03
2022-09-12T16:51:23.615Z,95.00
2022-09-12T16:54:37.203Z,95.33
2022-09-12T16:57:44.744Z,95.39
2022-09-12T17:01:05.674Z,95.57
2022-09-12T17:04:39.995Z,95.77
2022-09-12T17:08:19.717Z,95.71
2022-09-12T17:11:55.569Z,96.06
2022-09-12T17:15:08.606Z,96.12
2022-09-12T17:18:03.904Z,95.89
2022-09-12T17:21:12.780Z,95.90
2022-09-12T17:24:05.090Z,96.04
2022-09-12T17:26:54.669Z,96.52
2022-09-12T17:30:24.216Z,96.47
2022-09-12T17:33:45.235Z,96.57
2022-09-12T17:37:31.280Z,96.79
2022-09-12T17:40:37.102Z,96.88
2022-09-12T17:44:25.296Z,96.95
2022-09-12T17:47:51.860Z,97.05
2022-09-12T17:50:39.391Z,97.09
2022-09-12T17:53:42.496Z,96.97
2022-09-12T17:56:45.150Z,96.99
2022-09-12T18:00:22.369Z,97.31
2022-09-12T18:03:51.787Z,97.38
2022-09-12T18:06:22.213Z,97.17
2022-09-12T18:09:21.627Z,97.19
2022-09-12T18:12:04.936Z,97.50
2022-09-12T18:15:19.802Z,97.79
2022-09-12T18:23:12.275Z,97.86
2022-09-12T18:26:29.395Z,98.28
2022-09-12T18:34:43.596Z,98.26
2022-09-12T18:37:17.083Z,98.55
2022-09-12T18:44:26.105Z,99.08
2022-09-12T18:47:05.097Z,98.92
2022-09-12T18:50:09.924Z,99.17
2022-09-12T18:53:21.600Z,99.33
2022-09-12T18:56:14.895Z,99.24
2022-09-12T18:59:05.841Z,99.32
2022-09-12T19:05:48.953Z,99.10
2022-09-12T19:12:35.415Z,99.58
2022-09-12T19:15:35.083Z,99.64
2022-09-12T19:18:49.428Z,99.43
2022-09-12T19:22:36.499Z,99.26
2022-09-12T19:25:57.224Z,99.44
2022-09-12T19:29:06.199Z,99.35
2022-09-12T19:32:15.738Z,99.48
2022-09-12T19:35:31.226Z,99.81
2022-09-12T19:38:29.588Z,99.91
2022-09-12T19:41:44.921Z,99.64
2022-09-12T19:45:29.678Z,99.47
2022-09-12T19:48:31.250Z,99.36
2022-09-12T19:52:17.592Z,99.27
2022-09-12T19:55:30.226Z,99.19
2022-09-12T19:59:29.345Z,99.37
2022-09-12T20:02:37.794Z,99.06
2022-09-12T20:09:30.839Z,99.08
2022-09-12T20:16:55.958Z,98.97
2022-09-12T20:20:29.568Z,98.92
2022-09-12T20:23:36.314Z,98.93
2022-09-12T20:31:36.829Z,99.00
2022-09-12T20:35:33.606Z,98.76
2022-09-12T20:47:44.972Z,98.73
2022-09-12T20:51:05.596Z,98.82
2022-09-12T20:58:50.469Z,98.78
2022-09-12T21:10:33.117Z,98.91
2022-09-12T21:14:05.495Z,98.68
2022-09-12T21:17:29.265Z,98.86
2022-09-12T21:20:11.562Z,98.94
2022-09-12T21:32:24.637Z,98.70
2022-09-12T21:36:15.265Z,98.45
2022-09-12T21:40:04.424Z,98.28
2022-09-12T21:51:53.403Z,97.75
2022-09-12T21:58:19.892Z,97.15
2022-09-12T22:01:30.539Z,96.84
2022-09-12T22:05:27.456Z,97.07
2022-09-12T22:12:17.716Z,96.63
2022-09-12T22:15:40.246Z,96.70
2022-09-12T22:18:35.989Z,96.31
2022-09-12T22:29:46.449Z,95.62
2022-09-12T22:33:00.721Z,96.08
2022-09-12T22:36:13.176Z,95.77
2022-09-12T22:39:26.581Z,95.47
2022-09-12T22:42:40.258Z,95.36
2022-09-12T22:45:45.655Z,95.25
2022-09-12T22:48:49.115Z,94.90
2022-09-12T22:52:06.611Z,94.83
2022-09-12T22:55:34.872Z,94.97
2022-09-12T23:11:04.122Z,94.20
2022-09-12T23:13:53.276Z,94.28
2022-09-12T23:25:31.551Z,94.19
2022-09-12T23:29:23.877Z,93.96
2022-09-12T23:32:20.348Z,93.62
2022-09-12T23:39:40.787Z,93.70
2022-09-12T23:43:08.439Z,93.69
2022-09-12T23:46:26.598Z,93.57
2022-09-12T23:53:36.037Z,93.74
